Time;durP1;ratioP1;P1;durP2;ratioP2;P2;SDS_P1;SDS_P2;PMS_P1;PMS_P2;Temp;Humidity;BMP_temperature;BMP_pressure;BME280_temperature;BME280_humidity;BME280_pressure;Samples;Min_cycle;Max_cycle;Signal;HPM_P1;HPM_P2
2024/03/16 00:01:06;;;;;;;23.65;12.38;;;230.80;2252.80;;;;;;5010749;28;20030;-73
2024/03/16 00:03:32;;;;;;;21.77;12.98;;;230.70;2252.80;;;;;;5016172;28;20175;-75
2024/03/16 00:05:58;;;;;;;22.92;14.25;;;230.70;2252.80;;;;;;5010334;28;20453;-73
2024/03/16 00:08:24;;;;;;;24.17;16.73;;;230.70;2252.80;;;;;;5024386;28;20029;-72
2024/03/16 00:10:50;;;;;;;30.48;20.63;;;230.70;2252.80;;;;;;5017551;28;20023;-73
2024/03/16 00:13:17;;;;;;;37.83;23.73;;;230.60;2252.80;;;;;;5023158;28;20083;-73
2024/03/16 00:15:47;;;;;;;29.50;21.05;;;230.60;2252.80;;;;;;5018725;28;20559;-74
2024/03/16 00:18:13;;;;;;;25.60;18.02;;;230.60;2252.80;;;;;;5006660;28;20050;-73
2024/03/16 00:20:40;;;;;;;30.88;18.38;;;230.60;2252.80;;;;;;5012545;28;20030;-77
2024/03/16 00:23:07;;;;;;;28.48;16.60;;;230.50;2252.80;;;;;;4993838;28;20024;-74
2024/03/16 00:25:33;;;;;;;21.48;14.25;;;230.40;2252.80;;;;;;4978990;28;20046;-73
2024/03/16 00:27:59;;;;;;;20.02;14.13;;;230.50;2252.80;;;;;;4993162;28;20034;-73
2024/03/16 00:30:26;;;;;;;19.65;10.95;;;230.40;2252.80;;;;;;4994058;28;20050;-73
2024/03/16 00:32:52;;;;;;;18.05;11.10;;;230.40;2252.80;;;;;;5003589;28;20431;-73
2024/03/16 00:35:18;;;;;;;26.65;15.00;;;230.40;2252.80;;;;;;4992215;28;20038;-73
2024/03/16 00:37:45;;;;;;;44.83;27.70;;;230.40;2252.80;;;;;;5014873;28;20486;-73
2024/03/16 00:40:11;;;;;;;29.73;17.63;;;205.70;2252.80;;;;;;5026958;28;20025;-73
2024/03/16 00:42:37;;;;;;;22.42;13.15;;;205.70;2252.80;;;;;;5028230;28;20022;-74
2024/03/16 00:45:04;;;;;;;22.15;13.05;;;205.70;2252.80;;;;;;5017319;28;20025;-75
2024/03/16 00:47:29;;;;;;;14.77;11.45;;;205.70;2252.80;;;;;;5027736;28;20022;-74
2024/03/16 00:49:55;;;;;;;19.98;11.40;;;205.70;2252.80;;;;;;5014294;28;20025;-73
2024/03/16 00:52:21;;;;;;;19.25;14.75;;;230.40;2252.80;;;;;;5029229;28;20021;-73
2024/03/16 00:54:47;;;;;;;21.60;14.15;;;205.70;2252.80;;;;;;5027825;28;20036;-72
2024/03/16 00:57:13;;;;;;;20.38;12.98;;;230.40;2252.80;;;;;;5027302;28;20079;-74
2024/03/16 00:59:41;;;;;;;24.27;17.13;;;230.40;2252.80;;;;;;5011530;28;20050;-74
2024/03/16 01:02:07;;;;;;;27.17;24.27;;;230.50;2252.80;;;;;;5010945;28;20115;-73
2024/03/16 01:04:37;;;;;;;25.20;18.02;;;230.50;2252.80;;;;;;4992519;28;20029;-74
2024/03/16 01:07:03;;;;;;;32.58;18.10;;;230.50;2252.80;;;;;;5011936;28;20053;-74
2024/03/16 01:09:29;;;;;;;31.95;19.02;;;230.50;2252.80;;;;;;5009904;28;20715;-74
2024/03/16 01:11:55;;;;;;;23.25;16.65;;;230.50;2252.80;;;;;;5021293;28;20028;-73
2024/03/16 01:14:21;;;;;;;30.70;18.52;;;230.50;2252.80;;;;;;5027394;28;20067;-74
2024/03/16 01:16:46;;;;;;;34.47;22.90;;;230.40;2252.80;;;;;;5015818;28;20026;-73
2024/03/16 01:19:12;;;;;;;34.38;22.50;;;230.40;2252.80;;;;;;5029483;28;20036;-73
2024/03/16 01:21:38;;;;;;;36.20;25.58;;;230.40;2252.80;;;;;;5027176;28;20025;-73
2024/03/16 01:24:05;;;;;;;28.15;18.48;;;230.40;2252.80;;;;;;5028055;28;20480;-73
2024/03/16 01:26:31;;;;;;;27.30;18.08;;;205.70;2252.80;;;;;;5025314;28;20472;-73
2024/03/16 01:28:59;;;;;;;28.63;16.33;;;205.70;2252.80;;;;;;5026263;28;20057;-74
2024/03/16 01:31:26;;;;;;;24.90;14.38;;;205.60;2252.80;;;;;;5022155;28;20018;-72
2024/03/16 01:33:52;;;;;;;24.45;14.70;;;205.50;2252.80;;;;;;5019275;28;20156;-74
2024/03/16 01:36:18;;;;;;;18.13;11.38;;;205.50;2252.80;;;;;;5026179;28;20450;-74
2024/03/16 01:38:44;;;;;;;21.30;12.18;;;205.50;2252.80;;;;;;5006844;28;20049;-73
2024/03/16 01:41:10;;;;;;;42.35;27.08;;;205.50;2252.80;;;;;;5001805;28;20348;-73
2024/03/16 01:43:36;;;;;;;26.40;17.77;;;205.50;2252.80;;;;;;5000286;28;20030;-73
2024/03/16 01:46:02;;;;;;;27.63;15.90;;;205.40;2252.80;;;;;;5020558;28;20029;-73
2024/03/16 01:48:28;;;;;;;25.67;15.55;;;205.50;2252.80;;;;;;5020895;28;20050;-73
2024/03/16 01:50:54;;;;;;;20.60;11.77;;;205.40;2252.80;;;;;;5022392;28;20025;-74
2024/03/16 01:53:20;;;;;;;19.15;12.88;;;205.30;2252.80;;;;;;5027687;28;20021;-74
2024/03/16 01:55:45;;;;;;;20.88;12.82;;;205.30;2252.80;;;;;;5018715;28;20087;-75
2024/03/16 01:58:11;;;;;;;18.60;13.80;;;205.30;2252.80;;;;;;5027252;28;20037;-75
2024/03/16 02:00:37;;;;;;;25.83;15.43;;;205.30;2252.80;;;;;;5024545;28;20361;-74
2024/03/16 02:03:03;;;;;;;20.95;13.88;;;205.40;2252.80;;;;;;5027458;28;20029;-74
2024/03/16 02:05:29;;;;;;;21.15;14.35;;;205.30;2252.80;;;;;;5022708;28;20459;-74
2024/03/16 02:07:55;;;;;;;22.27;13.60;;;205.30;2252.80;;;;;;4992064;28;20029;-74
2024/03/16 02:10:21;;;;;;;16.27;10.82;;;205.30;2252.80;;;;;;5003166;28;20026;-73
2024/03/16 02:12:47;;;;;;;17.67;10.45;;;205.20;2252.80;;;;;;4995775;28;20105;-74
2024/03/16 02:15:14;;;;;;;15.07;10.30;;;205.20;2252.80;;;;;;5021208;28;20033;-74
2024/03/16 02:17:41;;;;;;;17.15;9.75;;;205.10;2252.80;;;;;;5027372;28;20028;-74
2024/03/16 02:20:15;;;;;;;20.13;9.40;;;205.10;2252.80;;;;;;5025339;28;20052;-74
2024/03/16 02:22:41;;;;;;;;;;;205.10;2252.80;;;;;;5030270;28;20021;-73
2024/03/16 02:25:08;;;;;;;16.92;10.05;;;205.10;2252.80;;;;;;5028196;28;19912;-75
2024/03/16 02:27:34;;;;;;;16.30;10.25;;;205.00;2252.80;;;;;;5013494;28;20033;-74
2024/03/16 02:30:00;;;;;;;16.17;10.52;;;205.10;2252.80;;;;;;5024280;28;20045;-74
2024/03/16 02:32:26;;;;;;;19.08;10.73;;;205.10;2252.80;;;;;;5031980;28;20400;-75
2024/03/16 02:34:51;;;;;;;18.30;10.25;;;205.10;2252.80;;;;;;5006830;28;20055;-73
2024/03/16 02:37:19;;;;;;;14.90;10.20;;;205.10;2252.80;;;;;;4996291;28;20058;-74
2024/03/16 02:39:45;;;;;;;15.48;10.00;;;205.10;2252.80;;;;;;5010390;28;20065;-73
2024/03/16 02:42:11;;;;;;;17.73;10.75;;;205.10;2252.80;;;;;;5012443;28;20357;-74
2024/03/16 02:44:39;;;;;;;13.60;9.40;;;204.90;2252.80;;;;;;5012170;28;20044;-74
2024/03/16 02:47:04;;;;;;;15.75;9.55;;;205.00;2252.80;;;;;;5012447;28;20049;-74
2024/03/16 02:49:30;;;;;;;15.30;8.95;;;204.90;2252.80;;;;;;5012180;28;20057;-73
2024/03/16 02:51:56;;;;;;;15.15;8.73;;;204.90;2252.80;;;;;;5012313;28;20500;-73
2024/03/16 02:54:23;;;;;;;15.55;9.65;;;205.00;2252.80;;;;;;5012135;28;20435;-74
2024/03/16 02:56:49;;;;;;;17.67;13.07;;;204.90;2252.80;;;;;;5011748;28;20018;-74
2024/03/16 02:59:15;;;;;;;16.40;11.27;;;205.00;2252.80;;;;;;5012045;28;20033;-74
2024/03/16 03:01:41;;;;;;;14.10;8.90;;;204.90;2252.80;;;;;;5011631;28;20328;-74
2024/03/16 03:04:07;;;;;;;15.27;8.65;;;205.00;2252.80;;;;;;5011523;28;20099;-74
2024/03/16 03:06:34;;;;;;;13.30;8.35;;;204.90;2252.80;;;;;;5012114;28;20471;-74
2024/03/16 03:09:00;;;;;;;12.55;7.90;;;205.00;2252.80;;;;;;5011791;28;20018;-73
2024/03/16 03:11:26;;;;;;;11.65;8.50;;;205.00;2252.80;;;;;;5012017;28;20030;-73
2024/03/16 03:13:52;;;;;;;14.52;8.27;;;205.10;2252.80;;;;;;5011862;28;20041;-75
2024/03/16 03:16:21;;;;;;;11.52;7.07;;;205.00;2252.80;;;;;;5001437;28;20045;-74
2024/03/16 03:18:53;;;;;;;11.27;7.05;;;205.00;2252.80;;;;;;5008700;28;20022;-74
2024/03/16 03:21:19;;;;;;;10.45;7.07;;;205.00;2252.80;;;;;;5011511;28;20022;-74
2024/03/16 03:23:45;;;;;;;18.42;12.25;;;205.10;2252.80;;;;;;5011520;28;20033;-74
2024/03/16 03:26:11;;;;;;;12.68;8.40;;;205.50;2252.80;;;;;;5011296;28;20101;-74
2024/03/16 03:28:37;;;;;;;12.25;9.10;;;205.10;2252.80;;;;;;5011129;28;20111;-74
2024/03/16 03:31:06;;;;;;;31.73;17.35;;;205.10;2252.80;;;;;;5011680;28;20053;-74
2024/03/16 03:33:32;;;;;;;31.40;17.73;;;205.10;2252.80;;;;;;5010362;28;20026;-73
2024/03/16 03:35:59;;;;;;;18.63;10.48;;;205.00;2252.80;;;;;;5011389;28;20455;-73
2024/03/16 03:38:25;;;;;;;16.48;7.65;;;205.10;2252.80;;;;;;5011089;28;20072;-74
2024/03/16 03:40:51;;;;;;;12.05;8.65;;;205.00;2252.80;;;;;;5011089;28;20053;-73
2024/03/16 03:43:19;;;;;;;13.95;9.23;;;205.00;2252.80;;;;;;5010941;28;20026;-73
2024/03/16 03:50:49;;;;;;;15.35;10.18;;;205.20;2252.80;;;;;;5011022;28;20034;-72
2024/03/16 03:53:18;;;;;;;17.40;10.73;;;205.10;2252.80;;;;;;5010867;28;20476;-72
2024/03/16 03:55:44;;;;;;;16.52;9.95;;;205.10;2252.80;;;;;;5010856;28;20041;-73
2024/03/16 03:58:10;;;;;;;16.13;9.93;;;205.10;2252.80;;;;;;5010811;28;20028;-73
2024/03/16 04:00:37;;;;;;;13.10;9.10;;;205.00;2252.80;;;;;;5010645;28;20026;-73
2024/03/16 04:03:06;;;;;;;15.18;9.70;;;204.90;2252.80;;;;;;4998530;28;20563;-73
2024/03/16 04:05:33;;;;;;;14.00;8.90;;;204.80;2252.80;;;;;;5010856;28;20022;-73
2024/03/16 04:08:00;;;;;;;18.83;15.95;;;204.80;2252.80;;;;;;5010673;28;20057;-72
2024/03/16 04:10:26;;;;;;;18.30;15.40;;;204.80;2252.80;;;;;;5010187;28;20111;-72
2024/03/16 04:12:52;;;;;;;15.20;9.73;;;204.80;2252.80;;;;;;5012244;28;20018;-74
2024/03/16 04:15:18;;;;;;;17.35;8.50;;;180.10;2252.80;;;;;;4992738;28;20133;-73
2024/03/16 04:17:45;;;;;;;14.02;9.02;;;180.10;2252.80;;;;;;5010550;28;20045;-73
2024/03/16 04:20:14;;;;;;;16.08;9.88;;;180.10;2252.80;;;;;;5010364;28;20030;-73
2024/03/16 04:22:43;;;;;;;13.40;9.13;;;180.10;2252.80;;;;;;5010119;28;20029;-74
2024/03/16 04:25:12;;;;;;;12.77;8.93;;;180.10;2252.80;;;;;;5010222;28;20088;-73
2024/03/16 04:27:39;;;;;;;14.32;8.70;;;180.10;2252.80;;;;;;5010020;28;20022;-73
2024/03/16 04:30:08;;;;;;;13.00;8.60;;;180.10;2252.80;;;;;;5010584;28;20038;-73
2024/03/16 04:32:35;;;;;;;12.68;8.40;;;180.10;2252.80;;;;;;5010613;28;20380;-73
2024/03/16 04:35:02;;;;;;;12.63;7.65;;;180.10;2252.80;;;;;;5009870;28;20030;-72
2024/03/16 04:37:28;;;;;;;11.95;8.02;;;180.10;2252.80;;;;;;5010114;28;20141;-73
2024/03/16 04:39:55;;;;;;;12.13;7.65;;;204.80;2252.80;;;;;;5010050;28;20132;-73
2024/03/16 04:42:21;;;;;;;14.52;8.50;;;204.80;2252.80;;;;;;5010210;28;20022;-72
2024/03/16 04:44:47;;;;;;;11.35;7.80;;;204.90;2252.80;;;;;;5009785;28;20099;-71
2024/03/16 04:47:13;;;;;;;11.80;9.18;;;205.00;2252.80;;;;;;5010052;28;20029;-72
2024/03/16 04:49:40;;;;;;;12.43;7.40;;;204.90;2252.80;;;;;;5009581;28;20526;-73
2024/03/16 04:52:10;;;;;;;11.63;6.68;;;205.00;2252.80;;;;;;5010364;28;20093;-72
2024/03/16 04:54:36;;;;;;;12.18;8.02;;;205.00;2252.80;;;;;;5010068;28;20468;-73
2024/03/16 04:57:02;;;;;;;12.30;8.00;;;205.00;2252.80;;;;;;5010089;28;20033;-72
2024/03/16 04:59:28;;;;;;;16.17;8.52;;;205.10;2252.80;;;;;;5009748;28;20332;-73
2024/03/16 05:01:54;;;;;;;15.30;7.50;;;205.20;2252.80;;;;;;5009536;28;20113;-73
2024/03/16 05:04:19;;;;;;;13.93;8.02;;;205.20;2252.80;;;;;;5009341;28;20037;-73
2024/03/16 05:06:45;;;;;;;13.23;8.10;;;205.30;2252.80;;;;;;5011782;28;20020;-73
2024/03/16 05:09:11;;;;;;;12.27;9.98;;;205.40;2252.80;;;;;;5009481;28;20104;-73
2024/03/16 05:11:37;;;;;;;15.40;9.23;;;205.50;2252.80;;;;;;5009595;28;20020;-73
2024/03/16 05:14:07;;;;;;;11.57;9.00;;;205.50;2252.80;;;;;;5009614;28;20064;-73
2024/03/16 05:16:37;;;;;;;11.50;8.15;;;205.50;2252.80;;;;;;5009598;28;20030;-73
2024/03/16 05:19:04;;;;;;;12.27;8.35;;;205.60;2252.80;;;;;;5009419;28;20022;-75
2024/03/16 05:21:30;;;;;;;10.25;7.05;;;205.70;2252.80;;;;;;5008908;28;20030;-72
2024/03/16 05:23:57;;;;;;;11.70;7.45;;;205.70;2252.80;;;;;;5009223;28;20022;-72
2024/03/16 05:26:23;;;;;;;11.20;7.95;;;205.70;2252.80;;;;;;5009247;28;20033;-73
2024/03/16 05:28:49;;;;;;;11.70;6.28;;;230.40;2252.80;;;;;;5009166;28;20045;-72
2024/03/16 05:31:16;;;;;;;11.07;6.82;;;230.40;2252.80;;;;;;5009278;28;20026;-72
2024/03/16 05:33:42;;;;;;;14.63;8.02;;;230.50;2252.80;;;;;;5009091;28;20036;-72
2024/03/16 05:36:14;;;;;;;12.57;10.00;;;230.50;2252.80;;;;;;5009395;28;20167;-73
2024/03/16 05:38:43;;;;;;;16.40;10.18;;;230.50;2252.80;;;;;;5008857;28;20026;-72
2024/03/16 05:41:09;;;;;;;14.77;9.23;;;230.60;2252.80;;;;;;5009293;28;20021;-72
2024/03/16 05:43:35;;;;;;;11.35;8.32;;;230.70;2252.80;;;;;;5008983;28;20514;-73
2024/03/16 05:46:01;;;;;;;14.50;9.05;;;231.10;2252.80;;;;;;5009218;28;20022;-73
2024/03/16 05:48:27;;;;;;;14.32;8.63;;;230.90;2252.80;;;;;;5008885;28;20061;-74
2024/03/16 05:50:53;;;;;;;9.98;7.25;;;231.00;2252.80;;;;;;5008960;28;20060;-73
2024/03/16 05:53:20;;;;;;;9.85;7.63;;;231.10;2252.80;;;;;;5008834;28;20030;-73
2024/03/16 05:55:46;;;;;;;12.57;8.68;;;231.30;2252.80;;;;;;5008285;28;20038;-73
2024/03/16 05:58:12;;;;;;;12.40;8.05;;;256.00;2252.80;;;;;;5008886;28;20025;-73
2024/03/16 06:00:38;;;;;;;14.77;8.00;;;256.20;2252.80;;;;;;5008701;28;20026;-73
2024/03/16 06:03:04;;;;;;;10.48;6.38;;;256.30;2252.80;;;;;;5008867;28;20022;-72
2024/03/16 06:05:35;;;;;;;15.75;8.30;;;256.60;2252.80;;;;;;5008548;28;20030;-72
2024/03/16 06:08:04;;;;;;;9.85;7.30;;;256.80;2252.80;;;;;;5008673;28;20014;-72
2024/03/16 06:10:30;;;;;;;10.98;7.22;;;281.60;2278.40;;;;;;5008688;28;20375;-73
2024/03/16 06:12:56;;;;;;;12.27;7.03;;;281.80;2278.40;;;;;;5008760;28;20097;-73
2024/03/16 06:15:22;;;;;;;10.98;8.15;;;282.30;2278.40;;;;;;5008643;28;20092;-72
2024/03/16 06:17:49;;;;;;;24.23;8.95;;;333.40;2329.60;;;;;;5003965;28;20026;-74
2024/03/16 06:20:15;;;;;;;13.10;9.23;;;384.90;2278.40;;;;;;4991535;28;20025;-73
2024/03/16 06:22:41;;;;;;;20.23;9.85;;;410.50;2201.60;;;;;;5008563;28;20045;-74
2024/03/16 06:25:10;;;;;;;41.45;28.38;;;461.20;2073.60;;;;;;5008470;28;20022;-73
2024/03/16 06:27:43;;;;;;;71.07;43.80;;;;;;;;;;5009209;28;20049;-74
2024/03/16 06:30:12;;;;;;;55.67;41.60;;;537.60;1817.60;;;;;;5008294;28;20061;-73
2024/03/16 06:32:44;;;;;;;48.55;34.47;;;537.80;1792.00;;;;;;5008053;28;20399;-75
2024/03/16 06:35:11;;;;;;;44.35;34.97;;;537.80;1766.40;;;;;;5008158;28;20084;-74
2024/03/16 06:37:37;;;;;;;45.88;35.00;;;537.90;1766.40;;;;;;4995515;28;20026;-74
2024/03/16 06:40:04;;;;;;;43.38;32.60;;;538.20;1766.40;;;;;;5008578;28;20030;-74
2024/03/16 06:42:30;;;;;;;41.00;27.35;;;563.40;1740.80;;;;;;5008366;28;20049;-74
2024/03/16 06:44:55;;;;;;;35.45;28.73;;;563.50;1715.20;;;;;;5008458;28;20503;-73
2024/03/16 06:47:21;;;;;;;40.00;30.60;;;563.60;1689.60;;;;;;5008282;28;20045;-73
2024/03/16 06:49:47;;;;;;;43.35;35.67;;;563.60;1689.60;;;;;;5008088;28;20021;-73
2024/03/16 06:52:13;;;;;;;37.97;33.35;;;538.40;1689.60;;;;;;5008675;28;20036;-73
2024/03/16 06:54:39;;;;;;;35.05;30.75;;;537.80;1689.60;;;;;;5008152;28;20029;-73
2024/03/16 06:57:05;;;;;;;32.88;25.98;;;563.20;1689.60;;;;;;5008519;28;20469;-74
2024/03/16 06:59:31;;;;;;;31.80;27.23;;;563.90;1638.40;;;;;;5008125;28;20014;-73
2024/03/16 07:01:56;;;;;;;29.27;25.55;;;589.50;1587.20;;;;;;5008214;28;20468;-73
2024/03/16 07:04:22;;;;;;;28.55;22.15;;;614.60;1536.00;;;;;;5008358;28;20396;-74
2024/03/16 07:06:48;;;;;;;22.35;19.58;;;614.50;1536.00;;;;;;5008081;28;20030;-73
2024/03/16 07:09:18;;;;;;;20.52;17.23;;;614.60;1536.00;;;;;;5011729;28;20026;-73
2024/03/16 07:11:44;;;;;;;25.02;19.88;;;615.20;1510.40;;;;;;5002120;28;20015;-73
2024/03/16 07:14:09;;;;;;;22.48;18.58;;;640.50;1459.20;;;;;;5018505;28;20088;-73
2024/03/16 07:16:35;;;;;;;23.25;18.63;;;665.60;1459.20;;;;;;5011871;28;20033;-74
2024/03/16 07:19:01;;;;;;;25.23;20.83;;;640.70;1408.00;;;;;;5002224;28;20473;-74
2024/03/16 07:21:27;;;;;;;22.60;19.60;;;640.60;1433.60;;;;;;5009021;28;20042;-73
2024/03/16 07:23:53;;;;;;;22.27;19.88;;;640.40;1459.20;;;;;;5011713;28;20100;-73
2024/03/16 07:26:18;;;;;;;31.25;27.35;;;640.40;1459.20;;;;;;5006333;28;20037;-73
2024/03/16 07:28:45;;;;;;;31.42;26.20;;;640.40;1459.20;;;;;;5015166;28;20029;-74
2024/03/16 07:31:12;;;;;;;25.90;23.10;;;640.00;1459.20;;;;;;5011226;28;20129;-74
2024/03/16 07:33:38;;;;;;;32.67;25.27;;;640.00;1459.20;;;;;;5011120;28;20014;-74
2024/03/16 07:36:04;;;;;;;27.42;23.58;;;615.10;1484.80;;;;;;5011273;28;20109;-74
2024/03/16 07:38:30;;;;;;;29.65;25.17;;;615.00;1484.80;;;;;;5011021;28;20515;-74
2024/03/16 07:40:56;;;;;;;27.88;22.48;;;615.20;1484.80;;;;;;5011214;28;20038;-73
2024/03/16 07:43:22;;;;;;;26.08;22.70;;;640.00;1484.80;;;;;;5011363;28;20410;-75
2024/03/16 07:45:51;;;;;;;25.60;22.80;;;640.40;1459.20;;;;;;5011543;28;20030;-74
2024/03/16 07:48:17;;;;;;;29.95;26.17;;;640.40;1459.20;;;;;;5011088;28;20109;-73
2024/03/16 07:50:43;;;;;;;25.35;22.60;;;640.40;1459.20;;;;;;5011054;28;20101;-74
2024/03/16 07:53:10;;;;;;;27.80;23.70;;;640.90;1459.20;;;;;;5010892;28;20065;-76
2024/03/16 07:55:38;;;;;;;29.83;22.27;;;665.70;1459.20;;;;;;5011089;28;20037;-76
2024/03/16 07:58:04;;;;;;;53.20;37.60;;;665.70;1459.20;;;;;;5011096;28;20067;-77
2024/03/16 08:00:31;;;;;;;50.00;40.17;;;665.60;1459.20;;;;;;5010766;28;20037;-75
2024/03/16 08:02:57;;;;;;;41.83;37.45;;;640.70;1433.60;;;;;;5010365;28;20030;-76
2024/03/16 08:05:23;;;;;;;40.20;32.00;;;640.70;1433.60;;;;;;5010975;28;20025;-75
2024/03/16 08:07:49;;;;;;;44.65;36.40;;;640.30;1459.20;;;;;;5010394;28;20018;-75
2024/03/16 08:10:15;;;;;;;45.85;35.88;;;640.00;1459.20;;;;;;5022891;28;20308;-75
2024/03/16 08:12:41;;;;;;;41.72;35.80;;;615.30;1484.80;;;;;;4997114;28;20101;-76
2024/03/16 08:15:07;;;;;;;41.75;31.40;;;615.00;1510.40;;;;;;5010289;28;20428;-76
2024/03/16 08:17:33;;;;;;;51.28;40.72;;;614.90;1510.40;;;;;;5010520;28;20380;-76
2024/03/16 08:19:59;;;;;;;53.97;42.67;;;614.60;1536.00;;;;;;5009963;28;20030;-76
2024/03/16 08:22:25;;;;;;;51.40;34.95;;;589.70;1536.00;;;;;;5010617;28;20022;-76
2024/03/16 08:24:52;;;;;;;34.15;27.35;;;589.40;1587.20;;;;;;5010041;28;20026;-75
2024/03/16 08:27:17;;;;;;;36.95;25.95;;;589.40;1561.60;;;;;;5010390;28;20053;-76
2024/03/16 08:29:44;;;;;;;32.35;21.75;;;589.30;1561.60;;;;;;5010159;28;20058;-76
2024/03/16 08:32:11;;;;;;;41.25;30.05;;;589.20;1561.60;;;;;;5010211;28;20049;-76
2024/03/16 08:34:37;;;;;;;49.30;33.85;;;564.10;1587.20;;;;;;5010174;28;20104;-76
2024/03/16 08:37:03;;;;;;;47.35;34.92;;;588.80;1612.80;;;;;;5010327;28;20029;-76
2024/03/16 08:39:31;;;;;;;45.55;34.05;;;;;;;;;;5010059;28;20022;-74
2024/03/16 08:41:57;;;;;;;32.17;24.05;;;564.10;1638.40;;;;;;5009915;28;20026;-74
2024/03/16 08:44:23;;;;;;;32.60;23.30;;;563.70;1664.00;;;;;;5009997;28;20022;-73
2024/03/16 08:46:49;;;;;;;31.70;24.65;;;563.60;1664.00;;;;;;5009795;28;20022;-73
2024/03/16 08:49:15;;;;;;;45.42;29.05;;;563.40;1689.60;;;;;;5010116;28;20014;-72
2024/03/16 08:51:41;;;;;;;32.08;23.48;;;563.30;1715.20;;;;;;5010146;28;20026;-73
2024/03/16 08:54:07;;;;;;;31.90;23.27;;;538.50;1689.60;;;;;;5009869;28;20045;-73
2024/03/16 08:56:32;;;;;;;32.63;23.83;;;538.40;1715.20;;;;;;5009611;28;20411;-74
2024/03/16 08:58:58;;;;;;;26.10;18.95;;;538.40;1689.60;;;;;;5009455;28;20022;-73
2024/03/16 09:01:24;;;;;;;25.23;18.38;;;538.20;1689.60;;;;;;5009175;28;20068;-74
2024/03/16 09:03:50;;;;;;;25.13;17.75;;;538.20;1689.60;;;;;;5009588;28;20041;-72
2024/03/16 09:06:17;;;;;;;34.05;25.77;;;538.00;1689.60;;;;;;5008858;28;20385;-73
2024/03/16 09:08:43;;;;;;;33.58;25.08;;;;;;;;;;5006116;28;20473;-73
2024/03/16 09:11:12;;;;;;;40.67;30.10;;;537.60;1689.60;;;;;;5005777;28;20034;-73
2024/03/16 09:13:37;;;;;;;31.25;21.63;;;512.90;1689.60;;;;;;5008492;28;20021;-74
2024/03/16 09:16:05;;;;;;;51.63;30.42;;;512.80;1689.60;;;;;;4994116;28;20108;-74
2024/03/16 09:18:38;;;;;;;18.95;14.90;;;512.60;1715.20;;;;;;4999052;28;20057;-75
2024/03/16 09:21:05;;;;;;;;;;;512.60;1689.60;;;;;;5004214;28;20032;-75
2024/03/16 09:23:31;;;;;;;29.15;19.92;;;512.60;1689.60;;;;;;5004282;28;19909;-73
2024/03/16 09:25:57;;;;;;;22.25;19.85;;;512.60;1715.20;;;;;;5000857;28;20431;-72
2024/03/16 09:28:23;;;;;;;34.70;20.77;;;512.60;1689.60;;;;;;4997143;28;20037;-75
2024/03/16 09:30:49;;;;;;;28.95;19.05;;;512.50;1689.60;;;;;;5007438;28;20042;-73
2024/03/16 09:33:15;;;;;;;43.30;25.27;;;512.10;1715.20;;;;;;5009115;28;20066;-74
2024/03/16 09:35:42;;;;;;;60.17;32.72;;;512.40;1715.20;;;;;;4990504;28;20050;-73
2024/03/16 09:38:09;;;;;;;21.35;16.00;;;512.40;1715.20;;;;;;5008955;28;20088;-73
2024/03/16 09:40:39;;;;;;;21.65;15.93;;;512.40;1740.80;;;;;;5008348;28;20485;-74
2024/03/16 09:43:10;;;;;;;20.98;15.45;;;512.40;1715.20;;;;;;5009108;28;20014;-72
2024/03/16 09:45:36;;;;;;;18.70;14.23;;;512.50;1715.20;;;;;;5008581;28;20026;-72
2024/03/16 09:48:03;;;;;;;28.63;16.58;;;512.60;1689.60;;;;;;5009318;28;20022;-74
2024/03/16 09:50:31;;;;;;;17.70;13.40;;;512.50;1715.20;;;;;;4987033;28;20066;-73
2024/03/16 09:52:59;;;;;;;45.25;27.90;;;512.50;1689.60;;;;;;5008879;28;20029;-73
2024/03/16 09:55:27;;;;;;;20.17;15.07;;;512.40;1689.60;;;;;;5009101;28;20084;-73
2024/03/16 09:57:53;;;;;;;22.08;12.52;;;512.40;1689.60;;;;;;5008824;28;20022;-74
2024/03/16 10:00:21;;;;;;;16.70;10.48;;;512.50;1664.00;;;;;;5008024;28;20092;-73
2024/03/16 10:02:48;;;;;;;47.03;37.05;;;512.60;1638.40;;;;;;5008516;28;20437;-73
2024/03/16 10:05:17;;;;;;;19.13;12.73;;;512.80;1664.00;;;;;;5008532;28;20064;-72
2024/03/16 10:07:44;;;;;;;33.97;26.98;;;512.80;1664.00;;;;;;5008225;28;20022;-75
2024/03/16 10:10:15;;;;;;;21.35;13.43;;;512.90;1638.40;;;;;;4995166;28;20028;-74
2024/03/16 10:12:41;;;;;;;16.17;10.90;;;512.90;1638.40;;;;;;5008085;28;20033;-73
2024/03/16 10:15:30;;;;;;;163.55;124.60;;;512.90;1638.40;;;;;;5007802;28;20423;-74
2024/03/16 10:17:55;;;;;;;21.05;13.85;;;537.70;1638.40;;;;;;5007760;28;20069;-74
2024/03/16 10:20:24;;;;;;;15.32;10.63;;;537.60;1612.80;;;;;;5003091;28;20084;-73
2024/03/16 10:22:54;;;;;;;12.65;9.20;;;537.60;1612.80;;;;;;5015850;28;20033;-78
2024/03/16 10:25:22;;;;;;;9.63;7.22;;;512.90;1587.20;;;;;;5008018;28;20022;-75
2024/03/16 10:27:48;;;;;;;12.32;9.60;;;512.70;1612.80;;;;;;5008378;28;20097;-75
2024/03/16 10:30:15;;;;;;;7.93;6.95;;;512.90;1612.80;;;;;;5007860;28;20160;-74
2024/03/16 10:32:47;;;;;;;9.02;6.75;;;512.90;1587.20;;;;;;5008142;28;20033;-73
2024/03/16 10:35:14;;;;;;;14.75;13.18;;;512.90;1587.20;;;;;;5008360;28;20061;-75
2024/03/16 10:37:45;;;;;;;16.85;13.60;;;537.70;1587.20;;;;;;5008050;28;20736;-69
2024/03/16 10:40:18;;;;;;;16.05;14.30;;;537.70;1612.80;;;;;;5008072;28;20033;-70
2024/03/16 10:42:50;;;;;;;13.00;7.63;;;537.70;1587.20;;;;;;5009200;28;20036;-70
2024/03/16 10:45:17;;;;;;;8.57;6.10;;;537.80;1612.80;;;;;;5012332;28;20022;-70
2024/03/16 10:47:44;;;;;;;8.23;6.72;;;537.70;1587.20;;;;;;5011950;28;20026;-71
2024/03/16 10:50:10;;;;;;;10.13;6.90;;;537.70;1561.60;;;;;;5012037;28;20381;-70
2024/03/16 10:52:43;;;;;;;10.43;6.90;;;537.70;1561.60;;;;;;5011801;28;20018;-71
2024/03/16 10:55:15;;;;;;;9.60;8.60;;;538.00;1638.40;;;;;;5011446;28;20061;-70
2024/03/16 10:57:46;;;;;;;8.93;6.47;;;538.00;1587.20;;;;;;5006422;28;20076;-72
2024/03/16 11:00:35;;;;;;;9.32;6.65;;;537.90;1561.60;;;;;;5013096;28;20080;-69
2024/03/16 11:03:07;;;;;;;12.38;10.10;;;537.90;1587.20;;;;;;5011354;28;20496;-72
2024/03/16 11:05:37;;;;;;;8.68;6.90;;;538.00;1587.20;;;;;;5011896;28;20079;-67
2024/03/16 11:08:09;;;;;;;11.77;9.68;;;538.00;1561.60;;;;;;5023299;28;20047;-70
2024/03/16 11:10:42;;;;;;;11.15;8.43;;;538.00;1561.60;;;;;;5011650;28;20120;-68
2024/03/16 11:13:15;;;;;;;;;;;538.20;1561.60;;;;;;5011956;28;20540;-71
2024/03/16 11:15:41;;;;;;;10.52;5.72;;;538.00;1561.60;;;;;;5011357;28;19917;-68
2024/03/16 11:18:16;;;;;;;23.27;14.23;;;537.80;1561.60;;;;;;5001407;28;20049;-70
2024/03/16 11:21:14;;;;;;;14.23;10.23;;;538.00;1587.20;;;;;;5011314;28;20112;-70
2024/03/16 11:23:43;;;;;;;7.78;6.20;;;538.10;1612.80;;;;;;4993508;28;20457;-68
2024/03/16 11:26:27;;;;;;;9.77;7.90;;;538.30;1612.80;;;;;;5010689;28;20026;-69
2024/03/16 11:29:09;;;;;;;13.60;9.00;;;538.30;1561.60;;;;;;5011391;28;20589;-68
2024/03/16 11:31:37;;;;;;;8.30;6.18;;;538.10;1561.60;;;;;;5014136;28;20029;-68
2024/03/16 11:34:04;;;;;;;8.95;6.28;;;538.10;1561.60;;;;;;5020446;28;20034;-69
2024/03/16 11:36:32;;;;;;;8.50;5.60;;;538.10;1561.60;;;;;;5027572;28;20036;-69
2024/03/16 11:38:58;;;;;;;13.57;10.10;;;538.00;1561.60;;;;;;5018674;28;20048;-70
2024/03/16 11:41:24;;;;;;;15.38;11.38;;;537.90;1587.20;;;;;;5010931;28;20057;-68
2024/03/16 11:43:51;;;;;;;69.00;60.20;;;538.00;1587.20;;;;;;5010811;28;20468;-68
2024/03/16 11:46:19;;;;;;;10.35;8.38;;;538.00;1561.60;;;;;;5001650;28;20033;-69
2024/03/16 11:48:45;;;;;;;9.65;7.22;;;538.20;1587.20;;;;;;5013840;28;20102;-69
2024/03/16 11:51:15;;;;;;;9.63;7.50;;;538.40;1612.80;;;;;;5023311;28;20118;-68
2024/03/16 11:53:41;;;;;;;15.40;9.05;;;563.20;1638.40;;;;;;5010621;28;20037;-75
2024/03/16 11:56:12;;;;;;;9.48;6.63;;;563.20;1638.40;;;;;;5010632;28;20172;-70
2024/03/16 11:58:41;;;;;;;8.30;6.82;;;538.40;1587.20;;;;;;5011221;28;20018;-70
2024/03/16 12:01:15;;;;;;;11.57;7.03;;;538.30;1587.20;;;;;;5011151;28;20171;-69
2024/03/16 12:03:41;;;;;;;21.95;17.75;;;538.30;1587.20;;;;;;5010971;28;20034;-70
2024/03/16 12:06:09;;;;;;;10.35;8.48;;;538.50;1638.40;;;;;;4997422;28;20034;-72
2024/03/16 12:08:39;;;;;;;10.05;8.20;;;538.20;1587.20;;;;;;5011313;28;20121;-74
2024/03/16 12:11:08;;;;;;;13.68;10.63;;;538.00;1587.20;;;;;;5010847;28;20018;-73